Time;durP1;ratioP1;P1;durP2;ratioP2;P2;SDS_P1;SDS_P2;PMS_P1;PMS_P2;Temp;Humidity;BMP_temperature;BMP_pressure;BME280_temperature;BME280_humidity;BME280_pressure;Samples;Min_cycle;Max_cycle;Signal;HPM_P1;HPM_P2
2022/05/11 00:00:13;;;;;;;8.10;3.30;;;15.10;99.90;;;;;;4959303;28;20292;-74
2022/05/11 00:02:58;;;;;;;7.83;3.70;;;15.00;99.90;;;;;;4962274;28;20210;-74
2022/05/11 00:05:42;;;;;;;3.67;3.27;;;15.00;99.90;;;;;;4958054;28;20288;-74
2022/05/11 00:08:26;;;;;;;6.13;3.30;;;15.00;99.90;;;;;;4953170;28;20193;-74
2022/05/11 00:11:10;;;;;;;6.73;3.30;;;15.00;99.90;;;;;;4955386;28;20697;-74
2022/05/11 00:13:56;;;;;;;6.27;3.30;;;15.00;99.90;;;;;;4958944;28;20306;-74
2022/05/11 00:16:40;;;;;;;4.30;3.33;;;15.00;99.90;;;;;;4959996;28;20345;-75
2022/05/11 00:19:27;;;;;;;4.67;3.07;;;15.00;99.90;;;;;;4959761;28;20185;-74
2022/05/11 00:22:12;;;;;;;6.40;3.40;;;15.00;99.90;;;;;;4958967;28;20241;-75
2022/05/11 00:24:56;;;;;;;4.40;3.50;;;15.00;99.90;;;;;;4950233;28;20246;-74
2022/05/11 00:27:41;;;;;;;7.27;3.30;;;15.00;99.90;;;;;;4957282;28;20240;-75
2022/05/11 00:30:27;;;;;;;8.47;3.63;;;15.00;99.90;;;;;;4960214;28;20206;-75
2022/05/11 00:33:13;;;;;;;6.50;3.47;;;15.00;99.90;;;;;;4977446;28;20220;-74
2022/05/11 00:35:57;;;;;;;3.97;3.47;;;15.00;99.90;;;;;;4948168;28;20236;-74
2022/05/11 00:38:44;;;;;;;3.70;3.40;;;15.00;99.90;;;;;;4957712;28;20701;-74
2022/05/11 00:41:29;;;;;;;5.20;3.80;;;15.00;99.90;;;;;;4973506;28;20606;-73
2022/05/11 00:44:14;;;;;;;4.87;3.73;;;14.90;99.90;;;;;;4960052;28;20216;-74
2022/05/11 00:47:07;;;;;;;4.23;3.83;;;14.90;99.90;;;;;;4970038;28;20174;-73
2022/05/11 00:49:58;;;;;;;7.63;4.30;;;14.90;99.90;;;;;;4979172;28;20232;-74
2022/05/11 00:52:53;;;;;;;6.70;3.70;;;14.90;99.90;;;;;;4974178;28;20720;-74
2022/05/11 00:55:44;;;;;;;5.63;4.20;;;14.90;99.90;;;;;;4959797;28;20220;-77
2022/05/11 00:58:41;;;;;;;6.50;4.40;;;14.90;99.90;;;;;;4973016;28;20273;-74
2022/05/11 01:01:26;;;;;;;5.43;4.23;;;14.80;99.90;;;;;;4957958;28;20196;-75
2022/05/11 01:04:20;;;;;;;6.80;4.27;;;14.80;99.90;;;;;;4958554;28;20237;-74
2022/05/11 01:07:10;;;;;;;6.70;3.53;;;14.80;99.90;;;;;;4971047;28;20666;-75
2022/05/11 01:09:54;;;;;;;9.57;3.90;;;14.80;99.90;;;;;;4972934;28;20593;-74
2022/05/11 01:12:42;;;;;;;6.67;4.07;;;14.80;99.90;;;;;;4966444;28;20267;-74
2022/05/11 01:15:29;;;;;;;5.40;4.30;;;14.80;99.90;;;;;;4953202;28;20699;-74
2022/05/11 01:18:14;;;;;;;4.50;4.10;;;14.80;99.90;;;;;;4956794;28;20272;-74
2022/05/11 01:20:59;;;;;;;4.83;3.97;;;14.70;99.90;;;;;;4957464;28;20622;-75
2022/05/11 01:23:57;;;;;;;4.90;4.30;;;14.70;99.90;;;;;;4968620;28;20261;-74
2022/05/11 01:26:41;;;;;;;7.63;4.10;;;14.70;99.90;;;;;;4959701;28;20189;-76
2022/05/11 01:29:26;;;;;;;8.23;4.67;;;14.60;99.90;;;;;;4948708;28;20193;-75
2022/05/11 01:32:10;;;;;;;4.80;4.30;;;14.60;99.90;;;;;;4959808;28;20260;-73
2022/05/11 01:35:27;;;;;;;4.70;4.30;;;14.60;99.90;;;;;;4962374;28;20205;-74
2022/05/11 01:38:30;;;;;;;4.73;4.23;;;14.60;99.90;;;;;;4968125;28;20192;-74
2022/05/11 01:41:26;;;;;;;5.80;4.27;;;14.60;99.90;;;;;;4955290;28;20205;-74
2022/05/11 01:44:14;;;;;;;5.40;4.90;;;14.70;99.90;;;;;;4957680;28;20298;-74
2022/05/11 01:46:59;;;;;;;4.73;4.33;;;14.70;99.90;;;;;;4955141;28;20241;-74
2022/05/11 01:49:43;;;;;;;7.47;5.43;;;14.60;99.90;;;;;;4958111;28;20216;-75
2022/05/11 01:52:27;;;;;;;7.57;4.90;;;14.60;99.90;;;;;;4957053;28;20252;-74
2022/05/11 01:55:12;;;;;;;6.87;5.27;;;14.60;99.90;;;;;;4957658;28;20205;-75
2022/05/11 01:57:56;;;;;;;8.77;5.60;;;14.60;99.90;;;;;;4957833;28;20189;-74
2022/05/11 02:00:43;;;;;;;7.47;5.40;;;14.60;99.90;;;;;;4956439;28;20282;-74
2022/05/11 02:03:28;;;;;;;6.43;5.23;;;14.60;99.90;;;;;;4952939;28;20301;-74
2022/05/11 02:09:15;;;;;;;9.00;5.40;;;14.60;99.90;;;;;;4969187;28;20301;-73
2022/05/11 02:11:59;;;;;;;7.00;5.43;;;14.50;99.90;;;;;;4978459;28;20201;-73
2022/05/11 02:14:44;;;;;;;9.97;5.60;;;14.60;99.90;;;;;;4955259;28;20205;-73
2022/05/11 02:17:29;;;;;;;8.07;5.40;;;14.50;99.90;;;;;;4957056;28;20218;-73
2022/05/11 02:20:15;;;;;;;8.00;5.43;;;14.60;99.90;;;;;;4971202;28;20257;-73
2022/05/11 02:23:00;;;;;;;7.97;5.70;;;14.60;99.90;;;;;;4962427;28;20224;-73
2022/05/11 02:25:46;;;;;;;10.27;5.37;;;14.60;99.90;;;;;;4977995;28;20197;-73
2022/05/11 02:28:30;;;;;;;7.57;5.40;;;14.60;99.90;;;;;;4957240;28;20720;-72
2022/05/11 02:31:14;;;;;;;6.90;5.73;;;14.60;99.90;;;;;;4967870;28;20185;-73
2022/05/11 02:34:02;;;;;;;9.77;5.80;;;14.60;99.90;;;;;;4969833;28;20217;-73
2022/05/11 02:37:02;;;;;;;6.83;5.47;;;14.50;99.90;;;;;;4948390;28;20197;-73
2022/05/11 02:39:51;;;;;;;8.17;5.83;;;14.50;99.90;;;;;;4959237;28;20199;-75
2022/05/11 02:42:37;;;;;;;7.37;5.33;;;14.50;99.90;;;;;;4952101;28;20213;-75
2022/05/11 02:45:22;;;;;;;7.60;5.73;;;14.50;99.90;;;;;;4958393;28;20180;-74
2022/05/11 02:48:08;;;;;;;7.03;5.40;;;14.50;99.90;;;;;;4958169;28;20182;-74
2022/05/11 02:50:56;;;;;;;5.50;5.00;;;14.60;99.90;;;;;;4954359;28;20185;-74
2022/05/11 02:53:40;;;;;;;6.77;5.37;;;14.60;99.90;;;;;;4959069;28;20216;-73
2022/05/11 02:56:24;;;;;;;6.60;5.30;;;14.50;99.90;;;;;;4978493;28;20204;-75
2022/05/11 02:59:08;;;;;;;7.13;5.73;;;14.60;99.90;;;;;;4971986;28;20236;-74
2022/05/11 03:01:52;;;;;;;6.43;5.37;;;14.60;99.90;;;;;;4957333;28;20252;-74
2022/05/11 03:04:37;;;;;;;7.83;5.23;;;14.60;99.90;;;;;;4953965;28;20261;-73
2022/05/11 03:07:21;;;;;;;7.50;5.60;;;14.60;99.90;;;;;;4982746;28;20195;-72
2022/05/11 03:10:06;;;;;;;5.90;4.83;;;14.50;99.90;;;;;;4962049;28;20747;-73
2022/05/11 03:12:50;;;;;;;5.20;4.70;;;14.60;99.90;;;;;;4950976;28;20221;-73
2022/05/11 03:15:36;;;;;;;7.93;5.27;;;14.50;99.90;;;;;;4965511;28;20198;-72
2022/05/11 03:18:20;;;;;;;6.27;5.40;;;14.50;99.90;;;;;;4967542;28;20310;-72
2022/05/11 03:21:04;;;;;;;5.50;4.90;;;14.50;99.90;;;;;;4967386;28;20264;-72
2022/05/11 03:23:48;;;;;;;5.87;4.40;;;14.50;99.90;;;;;;4971474;28;20221;-73
2022/05/11 03:26:34;;;;;;;5.27;4.57;;;14.50;99.90;;;;;;4960425;28;20352;-73
2022/05/11 03:29:19;;;;;;;6.83;4.57;;;14.50;99.90;;;;;;4968502;28;20570;-73
2022/05/11 03:35:08;;;;;;;5.10;4.20;;;14.50;99.90;;;;;;4966295;28;20209;-73
2022/05/11 03:37:52;;;;;;;7.60;4.10;;;14.60;99.90;;;;;;4958399;28;20221;-73
2022/05/11 03:40:37;;;;;;;4.97;4.03;;;14.60;99.90;;;;;;4956903;28;20189;-73
2022/05/11 03:43:21;;;;;;;5.70;4.20;;;14.60;99.90;;;;;;4959823;28;20313;-73
2022/05/11 03:46:05;;;;;;;5.67;4.23;;;14.60;99.90;;;;;;4956920;28;20201;-73
2022/05/11 03:48:49;;;;;;;5.70;3.90;;;14.60;99.90;;;;;;4969286;28;20217;-73
2022/05/11 03:51:33;;;;;;;5.70;4.00;;;14.60;99.90;;;;;;4959191;28;20193;-73
2022/05/11 03:54:18;;;;;;;4.67;3.30;;;14.60;99.90;;;;;;4971208;28;20205;-74
2022/05/11 03:57:02;;;;;;;6.67;4.03;;;14.60;99.90;;;;;;4956472;28;20185;-74
2022/05/11 03:59:46;;;;;;;6.27;4.30;;;14.60;99.90;;;;;;4960186;28;20244;-74
2022/05/11 04:02:30;;;;;;;4.47;3.93;;;14.60;99.90;;;;;;4958045;28;20221;-74
2022/05/11 04:05:15;;;;;;;5.03;3.47;;;14.60;99.90;;;;;;4961150;28;20245;-73
2022/05/11 04:07:59;;;;;;;6.50;4.10;;;14.60;99.90;;;;;;4953784;28;20277;-75
2022/05/11 04:10:43;;;;;;;7.27;3.93;;;14.60;99.90;;;;;;4959611;28;20604;-74
2022/05/11 04:13:28;;;;;;;5.77;4.37;;;14.60;99.90;;;;;;4959483;28;20300;-74
2022/05/11 04:16:17;;;;;;;4.33;3.50;;;14.60;99.90;;;;;;4959336;28;20279;-73
2022/05/11 04:19:02;;;;;;;6.27;3.60;;;14.60;99.90;;;;;;4955116;28;20206;-74
2022/05/11 04:21:47;;;;;;;6.40;3.50;;;14.60;99.90;;;;;;4954900;28;20216;-73
2022/05/11 04:24:31;;;;;;;6.33;4.00;;;14.60;99.90;;;;;;4972902;28;20188;-74
2022/05/11 04:27:15;;;;;;;5.70;4.17;;;14.60;99.90;;;;;;4967668;28;20251;-74
2022/05/11 04:30:00;;;;;;;5.53;4.37;;;14.60;99.90;;;;;;4955495;28;20194;-74
2022/05/11 04:32:44;;;;;;;4.87;4.07;;;14.70;99.90;;;;;;4943542;29;20213;-73
2022/05/11 04:35:30;;;;;;;8.93;4.00;;;14.70;99.90;;;;;;4955053;28;20326;-74
2022/05/11 04:38:14;;;;;;;6.63;4.00;;;14.70;99.90;;;;;;4959165;28;20226;-73
2022/05/11 04:40:58;;;;;;;8.43;3.70;;;14.70;99.90;;;;;;4957185;28;20214;-74
2022/05/11 04:43:43;;;;;;;5.77;4.10;;;14.70;99.90;;;;;;4950316;29;20245;-74
2022/05/11 04:46:28;;;;;;;4.40;3.80;;;14.70;99.90;;;;;;4955937;28;20515;-74
2022/05/11 04:49:19;;;;;;;7.03;3.70;;;14.70;99.90;;;;;;4955246;28;20181;-76
2022/05/11 04:52:09;;;;;;;4.43;3.90;;;14.70;99.90;;;;;;4962143;28;20197;-74
2022/05/11 04:54:54;;;;;;;4.90;3.90;;;14.70;99.90;;;;;;4980986;28;20185;-74
2022/05/11 04:57:39;;;;;;;7.80;3.60;;;14.70;99.90;;;;;;4968422;28;20258;-75
2022/05/11 05:00:58;;;;;;;4.97;3.30;;;14.70;99.90;;;;;;4958799;28;20225;-73
2022/05/11 05:04:29;;;;;;;;;;;;;;;;;;;;;
2022/05/11 05:07:28;;;;;;;3.40;3.10;;;14.70;99.90;;;;;;4902631;28;20667;-73
2022/05/11 05:10:19;;;;;;;4.43;3.37;;;14.70;99.90;;;;;;4958884;28;20203;-73
2022/05/11 05:13:10;;;;;;;3.97;3.07;;;14.70;99.90;;;;;;4955860;28;20212;-73
2022/05/11 05:15:56;;;;;;;7.10;3.40;;;14.80;99.90;;;;;;4957828;28;20241;-73
2022/05/11 05:18:41;;;;;;;6.60;2.83;;;14.80;99.90;;;;;;4955753;28;20181;-73
2022/05/11 05:21:25;;;;;;;3.70;2.73;;;14.80;99.90;;;;;;4963594;28;20194;-73
2022/05/11 05:24:09;;;;;;;6.97;3.10;;;14.80;99.90;;;;;;4972211;28;20232;-74
2022/05/11 05:26:53;;;;;;;8.03;2.70;;;14.90;99.90;;;;;;4959488;28;20185;-73
2022/05/11 05:32:44;;;;;;;6.33;3.43;;;14.90;99.90;;;;;;4971086;28;20220;-73
2022/05/11 05:35:28;;;;;;;4.90;3.03;;;15.00;99.90;;;;;;4968996;28;20607;-73
2022/05/11 05:38:13;;;;;;;4.27;2.80;;;15.00;99.90;;;;;;4945254;28;20297;-73
2022/05/11 05:40:57;;;;;;;9.03;2.77;;;15.10;99.90;;;;;;4949985;28;20708;-73
2022/05/11 05:43:41;;;;;;;4.07;2.87;;;15.10;99.90;;;;;;4958212;28;20229;-75
2022/05/11 05:46:25;;;;;;;3.83;3.10;;;15.10;99.90;;;;;;4978312;28;20178;-73
2022/05/11 05:49:09;;;;;;;5.33;2.90;;;15.20;99.90;;;;;;4962413;28;20257;-74
2022/05/11 05:51:54;;;;;;;3.90;3.30;;;15.20;99.90;;;;;;4951099;28;20188;-74
2022/05/11 05:54:38;;;;;;;6.83;3.23;;;15.30;99.90;;;;;;4955519;28;20201;-73
2022/05/11 05:57:22;;;;;;;4.70;2.87;;;15.30;99.90;;;;;;4965628;28;20233;-73
2022/05/11 06:00:07;;;;;;;5.57;2.80;;;15.40;99.90;;;;;;4946369;28;20278;-75
2022/05/11 06:02:53;;;;;;;2.97;2.67;;;15.40;99.90;;;;;;4957959;28;20646;-74
2022/05/11 06:05:38;;;;;;;4.17;2.77;;;15.50;99.90;;;;;;4964244;28;20193;-74
2022/05/11 06:08:23;;;;;;;6.33;3.10;;;15.50;99.90;;;;;;4956155;28;20229;-75
2022/05/11 06:11:08;;;;;;;3.87;3.10;;;15.50;99.90;;;;;;4947684;28;20189;-75
2022/05/11 06:13:52;;;;;;;6.73;2.97;;;15.60;99.90;;;;;;4949302;28;20218;-73
2022/05/11 06:16:36;;;;;;;3.50;2.73;;;15.60;99.90;;;;;;4948505;28;20288;-74
2022/05/11 06:19:20;;;;;;;5.97;3.03;;;15.70;99.90;;;;;;4954409;28;20200;-74
2022/05/11 06:22:04;;;;;;;6.50;3.33;;;15.80;99.90;;;;;;4968925;28;20288;-74
2022/05/11 06:24:49;;;;;;;7.03;2.93;;;15.90;99.90;;;;;;4950009;28;20193;-75
2022/05/11 06:27:33;;;;;;;3.97;2.70;;;16.00;99.90;;;;;;4952368;28;20181;-75
2022/05/11 06:30:17;;;;;;;4.03;3.03;;;16.10;99.90;;;;;;4953122;28;20258;-74
2022/05/11 06:33:02;;;;;;;6.17;3.27;;;16.10;99.90;;;;;;4944811;28;20313;-73
2022/05/11 06:35:47;;;;;;;5.33;3.70;;;16.20;99.90;;;;;;4949096;28;20693;-74
2022/05/11 06:38:31;;;;;;;3.90;3.03;;;16.30;99.90;;;;;;4958343;28;20225;-74
2022/05/11 06:41:19;;;;;;;3.93;3.13;;;16.30;99.90;;;;;;4955943;28;20234;-74
2022/05/11 06:44:04;;;;;;;3.70;3.33;;;16.40;99.90;;;;;;4955577;28;20216;-75
2022/05/11 06:46:48;;;;;;;3.53;3.10;;;16.40;99.90;;;;;;4957794;28;20536;-74
2022/05/11 06:49:38;;;;;;;3.50;3.20;;;16.50;99.90;;;;;;4965934;28;20254;-75
2022/05/11 06:53:01;;;;;;;6.83;3.37;;;16.60;99.90;;;;;;4946680;28;20214;-74
2022/05/11 07:00:14;;;;;;;5.40;3.43;;;16.70;99.90;;;;;;4974572;28;20193;-75
2022/05/11 07:03:23;;;;;;;4.57;3.10;;;16.80;99.90;;;;;;4870262;29;20227;-75
2022/05/11 07:06:08;;;;;;;4.83;3.60;;;16.90;99.90;;;;;;4883107;29;20564;-74
2022/05/11 07:08:52;;;;;;;7.93;3.40;;;16.90;99.90;;;;;;4977756;28;20200;-75
2022/05/11 07:14:40;;;;;;;5.50;3.60;;;17.00;99.90;;;;;;4974790;28;20245;-74
2022/05/11 07:17:32;;;;;;;6.57;4.37;;;17.10;99.90;;;;;;4971436;28;20193;-74
2022/05/11 07:20:20;;;;;;;6.23;3.33;;;17.10;99.90;;;;;;4943847;28;20382;-74
2022/05/11 07:23:06;;;;;;;4.53;3.37;;;17.20;99.90;;;;;;4959749;28;20241;-74
2022/05/11 07:25:50;;;;;;;5.57;3.17;;;17.30;99.90;;;;;;4971916;28;20263;-74
2022/05/11 07:28:34;;;;;;;6.80;3.30;;;17.30;99.90;;;;;;4971895;28;20230;-74
2022/05/11 07:31:18;;;;;;;4.43;3.23;;;17.40;99.90;;;;;;4971366;28;20261;-73
2022/05/11 07:34:03;;;;;;;7.70;3.40;;;17.50;99.90;;;;;;4955817;28;20236;-73
2022/05/11 07:36:48;;;;;;;7.00;3.50;;;17.60;99.90;;;;;;4970115;28;20272;-73
2022/05/11 07:39:33;;;;;;;6.47;3.47;;;17.70;99.90;;;;;;4970256;28;20205;-73
2022/05/11 07:42:19;;;;;;;3.67;3.00;;;17.80;99.90;;;;;;4960763;28;20548;-73
2022/05/11 07:45:03;;;;;;;3.43;3.13;;;17.80;99.90;;;;;;4961004;28;20217;-74
2022/05/11 07:47:48;;;;;;;5.90;3.07;;;17.80;99.90;;;;;;4964293;28;20320;-73
2022/05/11 07:50:32;;;;;;;7.10;3.00;;;17.90;99.90;;;;;;4969516;28;20232;-73
2022/05/11 07:53:17;;;;;;;5.30;3.13;;;18.00;99.90;;;;;;4957607;28;20217;-74
2022/05/11 08:02:08;;;;;;;4.73;3.20;;;18.00;99.90;;;;;;4970877;28;20337;-73
2022/05/11 08:04:57;;;;;;;4.37;3.37;;;18.10;99.90;;;;;;4960896;28;20170;-73
2022/05/11 08:07:44;;;;;;;6.30;3.43;;;18.20;99.90;;;;;;4960181;28;20233;-74
2022/05/11 08:10:33;;;;;;;6.93;3.40;;;18.20;99.90;;;;;;4984124;28;20181;-73
2022/05/11 08:13:17;;;;;;;4.93;3.27;;;18.30;99.90;;;;;;4966799;28;20247;-73
2022/05/11 08:16:02;;;;;;;5.03;3.27;;;18.40;99.90;;;;;;4957561;28;20233;-73
2022/05/11 08:18:46;;;;;;;5.03;3.10;;;18.50;99.90;;;;;;4959940;28;20737;-73
2022/05/11 08:21:30;;;;;;;6.83;3.43;;;18.50;99.90;;;;;;4959687;28;20205;-74
2022/05/11 08:24:15;;;;;;;4.80;3.33;;;18.60;99.90;;;;;;4973649;28;20282;-73
2022/05/11 08:26:59;;;;;;;3.78;3.00;;;18.60;99.90;;;;;;4961580;28;20253;-73
2022/05/11 08:35:58;;;;;;;3.90;3.23;;;18.80;99.90;;;;;;4970120;28;20253;-73
2022/05/11 08:38:45;;;;;;;4.07;3.25;;;18.80;99.90;;;;;;4959345;28;20228;-73
2022/05/11 08:41:48;;;;;;;4.67;3.27;;;18.90;99.90;;;;;;4959892;28;20188;-73
2022/05/11 08:44:35;;;;;;;5.32;3.20;;;19.00;99.90;;;;;;4974585;28;20683;-73
2022/05/11 08:47:19;;;;;;;4.53;2.97;;;19.10;99.90;;;;;;4973266;28;20205;-74
2022/05/11 08:50:17;;;;;;;4.25;3.10;;;19.20;99.90;;;;;;4958422;28;20285;-73
2022/05/11 08:53:13;;;;;;;6.28;2.75;;;19.30;99.90;;;;;;4973683;28;20220;-74
2022/05/11 08:55:59;;;;;;;4.50;3.08;;;19.50;99.90;;;;;;4959297;28;20275;-73
2022/05/11 08:58:52;;;;;;;4.85;2.83;;;19.60;99.90;;;;;;4941616;29;20194;-74
2022/05/11 09:01:46;;;;;;;4.85;2.60;;;19.70;99.90;;;;;;4955412;28;20249;-74
2022/05/11 09:04:44;;;;;;;5.28;3.00;;;19.70;99.90;;;;;;4951783;28;20220;-75
2022/05/11 09:07:39;;;;;;;3.42;2.90;;;19.80;99.90;;;;;;4956241;28;20558;-74
2022/05/11 09:10:32;;;;;;;5.85;3.30;;;20.00;99.90;;;;;;4966671;28;20228;-73
2022/05/11 09:13:18;;;;;;;2.85;2.10;;;20.10;99.90;;;;;;4957735;28;20269;-74
2022/05/11 09:16:06;;;;;;;3.22;2.45;;;20.20;99.90;;;;;;4967904;28;20747;-74
2022/05/11 09:18:50;;;;;;;5.00;2.50;;;20.20;99.90;;;;;;4951277;28;20205;-73
2022/05/11 09:21:37;;;;;;;7.15;2.42;;;20.20;99.90;;;;;;4959427;28;20676;-74
2022/05/11 09:24:35;;;;;;;4.53;2.30;;;20.20;99.90;;;;;;4972098;28;20197;-74
2022/05/11 09:27:29;;;;;;;9.23;2.17;;;20.30;99.90;;;;;;4958392;28;20226;-74
2022/05/11 09:30:26;;;;;;;4.88;1.85;;;20.30;99.90;;;;;;4954941;28;20201;-74
2022/05/11 09:33:23;;;;;;;4.95;1.95;;;20.30;99.90;;;;;;4958124;28;20217;-74
2022/05/11 09:36:10;;;;;;;4.53;2.00;;;20.30;99.90;;;;;;4966026;28;20204;-74
2022/05/11 09:39:12;;;;;;;3.00;1.95;;;20.40;99.90;;;;;;4950513;28;20230;-74
2022/05/11 09:42:12;;;;;;;3.83;1.83;;;20.40;99.90;;;;;;4943182;29;20249;-74
2022/05/11 09:44:56;;;;;;;3.88;1.67;;;20.50;99.90;;;;;;4946660;28;20194;-75
2022/05/11 09:48:02;;;;;;;4.72;2.42;;;20.40;99.90;;;;;;4969061;28;20255;-75
2022/05/11 09:50:47;;;;;;;5.25;1.80;;;20.60;99.90;;;;;;4966543;28;20285;-75
2022/05/11 09:53:36;;;;;;;8.35;1.80;;;20.60;99.90;;;;;;4971730;28;20224;-74
2022/05/11 09:56:32;;;;;;;6.43;1.85;;;20.60;99.90;;;;;;4958005;28;20661;-75
2022/05/11 09:59:31;;;;;;;4.65;2.38;;;20.70;99.90;;;;;;4965847;28;20224;-75
2022/05/11 10:02:17;;;;;;;4.47;1.80;;;20.70;99.90;;;;;;4949469;28;20248;-75
2022/05/11 10:05:08;;;;;;;4.43;2.22;;;20.60;99.90;;;;;;4968211;28;20734;-75
2022/05/11 10:08:01;;;;;;;6.15;2.00;;;20.50;99.90;;;;;;4949688;29;20241;-75
2022/05/11 10:10:54;;;;;;;3.42;2.08;;;20.50;99.90;;;;;;4957691;28;20205;-75
2022/05/11 10:13:46;;;;;;;7.55;2.17;;;20.50;99.90;;;;;;4958610;28;20285;-75
2022/05/11 10:23:05;;;;;;;3.20;1.90;;;20.70;99.90;;;;;;4972593;28;20305;-75
2022/05/11 10:26:01;;;;;;;3.42;1.92;;;20.70;99.90;;;;;;4947850;28;20250;-75
2022/05/11 10:28:57;;;;;;;3.28;1.80;;;20.80;99.90;;;;;;4953286;28;20185;-75
2022/05/11 10:32:00;;;;;;;5.13;2.08;;;20.90;99.90;;;;;;4957944;28;20232;-74
2022/05/11 10:35:02;;;;;;;5.50;1.83;;;21.10;99.90;;;;;;4956731;28;20209;-74
2022/05/11 10:38:06;;;;;;;2.60;1.63;;;21.20;99.90;;;;;;4948532;28;20270;-76
2022/05/11 10:41:03;;;;;;;3.85;1.98;;;21.30;99.90;;;;;;4971243;28;20193;-75
2022/05/11 10:43:50;;;;;;;6.53;2.20;;;21.50;99.90;;;;;;4954414;28;20730;-75
2022/05/11 10:46:44;;;;;;;5.13;1.75;;;21.60;99.90;;;;;;4973878;28;20241;-74
2022/05/11 10:49:57;;;;;;;3.70;1.92;;;21.70;99.90;;;;;;4957718;28;20237;-74
2022/05/11 10:52:54;;;;;;;4.70;2.42;;;21.70;99.90;;;;;;4948908;28;20216;-74
2022/05/11 10:55:45;;;;;;;4.32;2.20;;;21.80;99.90;;;;;;4976655;28;20349;-75
2022/05/11 10:59:26;;;;;;;6.80;2.05;;;21.80;99.90;;;;;;4939553;28;20241;-74
2022/05/11 11:02:38;;;;;;;6.28;2.50;;;21.80;99.90;;;;;;4874959;29;20261;-74
2022/05/11 11:09:11;;;;;;;4.05;2.40;;;21.80;99.90;;;;;;4974830;28;20196;-75
2022/05/11 11:12:01;;;;;;;7.50;2.28;;;21.90;99.90;;;;;;4973128;28;20197;-75
2022/05/11 11:14:50;;;;;;;1.98;1.88;;;21.80;99.90;;;;;;4970973;28;20203;-75
2022/05/11 11:17:35;;;;;;;6.78;2.20;;;21.90;99.90;;;;;;4950411;28;20262;-75
2022/05/11 11:20:22;;;;;;;4.32;1.73;;;22.00;99.90;;;;;;4942748;28;20206;-74
2022/05/11 11:23:15;;;;;;;5.97;2.20;;;22.10;99.90;;;;;;4957926;28;20280;-74
2022/05/11 11:26:32;;;;;;;6.20;2.00;;;22.10;99.90;;;;;;4961098;28;20241;-75
2022/05/11 11:29:20;;;;;;;5.45;2.33;;;22.20;99.90;;;;;;4955183;28;20206;-75
2022/05/11 11:32:11;;;;;;;7.90;2.00;;;22.30;99.90;;;;;;4942252;29;20178;-75
2022/05/11 11:35:23;;;;;;;4.65;1.92;;;22.30;99.90;;;;;;4954518;29;20217;-75
2022/05/11 11:38:21;;;;;;;4.57;2.00;;;22.50;99.90;;;;;;4962978;28;20282;-75
2022/05/11 11:41:09;;;;;;;3.80;1.73;;;22.50;99.90;;;;;;4960795;28;20704;-75
2022/05/11 11:43:56;;;;;;;3.60;2.00;;;22.40;99.90;;;;;;4955543;29;20694;-75
2022/05/11 11:46:45;;;;;;;6.28;1.70;;;22.30;99.90;;;;;;4953178;28;20197;-75
2022/05/11 11:49:29;;;;;;;6.63;2.15;;;22.30;99.90;;;;;;4961540;28;20186;-74
2022/05/11 11:52:40;;;;;;;7.53;1.90;;;22.30;99.90;;;;;;4971982;28;20292;-75
2022/05/11 11:55:28;;;;;;;4.68;2.00;;;22.40;99.90;;;;;;4968560;28;20685;-75
2022/05/11 11:58:27;;;;;;;7.03;2.00;;;22.50;99.90;;;;;;4974475;28;20295;-75
2022/05/11 12:01:19;;;;;;;8.93;2.00;;;22.60;99.90;;;;;;4961178;28;20177;-75
2022/05/11 12:04:13;;;;;;;7.10;1.90;;;22.70;99.90;;;;;;4960927;28;20245;-75
2022/05/11 12:16:53;;;;;;;6.07;1.80;;;22.60;99.90;;;;;;4975397;28;20260;-74
2022/05/11 12:19:38;;;;;;;3.65;1.67;;;22.60;99.90;;;;;;4959047;28;20190;-75
2022/05/11 12:22:24;;;;;;;3.92;1.35;;;22.60;99.90;;;;;;4952388;28;20624;-74
2022/05/11 12:25:36;;;;;;;6.43;1.80;;;22.70;99.90;;;;;;4974985;28;20201;-75
2022/05/11 12:28:24;;;;;;;9.75;2.00;;;22.70;99.90;;;;;;4971970;28;20215;-76
2022/05/11 12:31:29;;;;;;;3.83;1.42;;;22.70;99.90;;;;;;4960533;28;20197;-75
2022/05/11 12:34:13;;;;;;;4.40;1.55;;;22.70;99.90;;;;;;4941307;28;20310;-76
2022/05/11 12:36:57;;;;;;;5.45;1.50;;;22.80;99.90;;;;;;4941927;28;20201;-75
2022/05/11 12:39:41;;;;;;;5.72;1.90;;;22.80;99.90;;;;;;4952448;28;20325;-75
2022/05/11 12:42:33;;;;;;;7.03;2.05;;;22.90;99.90;;;;;;4959377;28;20632;-75
2022/05/11 12:45:21;;;;;;;4.30;1.83;;;22.90;99.90;;;;;;4953777;28;20279;-75
2022/05/11 12:48:07;;;;;;;6.65;2.17;;;22.90;99.90;;;;;;4956221;28;20185;-74
2022/05/11 12:51:05;;;;;;;3.47;1.83;;;22.90;99.90;;;;;;4959640;28;20185;-75
2022/05/11 12:53:52;;;;;;;7.28;1.75;;;22.90;99.90;;;;;;4958873;28;20297;-76
2022/05/11 12:56:39;;;;;;;10.55;2.08;;;23.00;99.90;;;;;;4985018;28;20241;-76
2022/05/11 12:59:25;;;;;;;2.72;1.60;;;23.10;99.90;;;;;;4959436;28;20181;-76
2022/05/11 13:02:19;;;;;;;5.13;1.48;;;23.10;99.90;;;;;;4959494;28;20206;-75
2022/05/11 13:05:08;;;;;;;6.85;2.10;;;23.10;99.90;;;;;;4974017;28;20653;-74
2022/05/11 13:08:00;;;;;;;5.75;1.92;;;23.10;99.90;;;;;;4964837;28;20380;-75
2022/05/11 13:10:46;;;;;;;3.75;1.92;;;23.20;99.90;;;;;;4976099;28;20181;-75
2022/05/11 13:13:31;;;;;;;7.05;2.17;;;23.20;99.90;;;;;;4986911;28;20237;-75
2022/05/11 13:16:18;;;;;;;4.38;1.70;;;23.20;99.90;;;;;;4959769;28;20241;-75
2022/05/11 13:19:24;;;;;;;4.07;1.55;;;23.20;99.90;;;;;;4974049;28;20192;-75
2022/05/11 13:22:14;;;;;;;9.27;1.65;;;23.10;99.90;;;;;;4971379;28;20280;-74
2022/05/11 13:25:05;;;;;;;4.68;1.60;;;23.20;99.90;;;;;;4955508;28;20181;-74
2022/05/11 13:27:49;;;;;;;4.97;1.50;;;23.30;99.90;;;;;;4958280;28;20194;-75
2022/05/11 13:30:36;;;;;;;6.55;1.60;;;23.40;99.90;;;;;;4961096;28;20201;-75
2022/05/11 13:33:41;;;;;;;4.90;1.77;;;23.40;99.90;;;;;;4959098;28;20221;-75
2022/05/11 13:36:28;;;;;;;6.15;1.80;;;23.40;99.90;;;;;;4957115;28;20241;-73
2022/05/11 13:39:12;;;;;;;8.65;1.92;;;23.40;99.90;;;;;;4957085;28;20208;-74
2022/05/11 13:42:14;;;;;;;6.22;1.63;;;23.30;99.90;;;;;;4970018;28;20197;-75
2022/05/11 13:45:08;;;;;;;8.32;1.85;;;23.30;99.90;;;;;;4957526;28;20189;-75
2022/05/11 13:48:14;;;;;;;5.20;1.80;;;23.20;99.90;;;;;;4959280;28;20202;-74
2022/05/11 13:51:26;;;;;;;6.18;1.75;;;23.30;99.90;;;;;;4971017;28;20200;-74
2022/05/11 13:54:21;;;;;;;10.15;1.70;;;23.40;99.90;;;;;;4955526;28;20354;-75
2022/05/11 13:57:31;;;;;;;4.82;1.85;;;23.40;99.90;;;;;;4953709;28;20232;-75
2022/05/11 14:00:22;;;;;;;9.02;1.75;;;23.40;99.90;;;;;;4946383;28;20209;-74
2022/05/11 14:03:06;;;;;;;6.18;1.88;;;23.50;99.90;;;;;;4952262;29;20289;-74
2022/05/11 14:05:50;;;;;;;8.48;1.73;;;23.40;99.90;;;;;;4939792;29;20170;-75
2022/05/11 14:08:35;;;;;;;9.07;1.70;;;23.40;99.90;;;;;;4949379;28;20189;-75
2022/05/11 14:11:21;;;;;;;4.80;1.48;;;23.40;99.90;;;;;;4954387;28;20323;-74
2022/05/11 14:14:05;;;;;;;5.80;1.50;;;23.50;99.90;;;;;;4974702;28;20232;-75
2022/05/11 14:16:51;;;;;;;8.68;1.60;;;23.60;99.90;;;;;;4949869;28;20237;-74
2022/05/11 14:19:39;;;;;;;5.68;1.45;;;23.60;99.90;;;;;;4958787;28;20189;-75
2022/05/11 14:22:23;;;;;;;6.63;1.80;;;23.60;99.90;;;;;;4958512;28;20729;-74
2022/05/11 14:25:09;;;;;;;8.45;1.67;;;23.70;99.90;;;;;;4957432;28;20194;-75
2022/05/11 14:27:53;;;;;;;6.88;1.63;;;23.70;99.90;;;;;;4958868;28;20232;-74
2022/05/11 14:30:39;;;;;;;3.65;1.45;;;23.70;99.90;;;;;;4957810;28;20193;-74
2022/05/11 14:33:23;;;;;;;3.78;1.45;;;23.70;99.90;;;;;;4958085;28;20249;-74
2022/05/11 14:36:08;;;;;;;6.47;1.90;;;23.70;99.90;;;;;;4957940;28;20245;-74
2022/05/11 14:38:52;;;;;;;6.18;1.80;;;23.70;99.90;;;;;;4974222;28;20205;-74
2022/05/11 14:41:36;;;;;;;6.13;1.67;;;23.70;99.90;;;;;;4957056;28;20383;-75
2022/05/11 14:44:21;;;;;;;7.07;1.80;;;23.60;99.90;;;;;;4945950;28;20229;-75
2022/05/11 14:47:05;;;;;;;5.07;1.35;;;23.60;99.90;;;;;;4962630;28;20259;-74
2022/05/11 14:49:50;;;;;;;10.63;1.70;;;23.60;99.90;;;;;;4941852;28;20193;-75
2022/05/11 14:52:35;;;;;;;6.05;1.75;;;23.70;99.90;;;;;;4956932;28;20340;-75
2022/05/11 14:55:20;;;;;;;5.65;1.42;;;23.70;99.90;;;;;;4956305;28;20297;-75
2022/05/11 15:04:40;;;;;;;4.10;1.30;;;23.60;99.90;;;;;;4959723;28;20229;-75
2022/05/11 15:07:24;;;;;;;7.80;1.50;;;23.60;99.90;;;;;;4958307;28;20232;-75
2022/05/11 15:10:09;;;;;;;6.28;1.38;;;23.50;99.90;;;;;;4955726;28;20630;-74
2022/05/11 15:15:57;;;;;;;7.78;1.70;;;23.40;99.90;;;;;;4953502;28;20205;-75
2022/05/11 15:18:41;;;;;;;8.35;1.70;;;23.50;99.90;;;;;;4952470;28;20205;-75
2022/05/11 15:21:26;;;;;;;6.88;1.77;;;23.40;99.90;;;;;;4938986;29;20253;-75
2022/05/11 15:24:10;;;;;;;4.90;1.55;;;23.40;99.90;;;;;;4950028;28;20278;-75
2022/05/11 15:26:54;;;;;;;2.60;1.55;;;23.40;99.90;;;;;;4956052;28;20226;-75
2022/05/11 15:29:39;;;;;;;5.80;1.73;;;23.50;99.90;;;;;;4958662;28;20237;-75
2022/05/11 15:32:26;;;;;;;5.47;1.40;;;23.50;99.90;;;;;;4939262;29;20236;-76
2022/05/11 15:35:13;;;;;;;4.28;1.60;;;23.40;99.90;;;;;;4952103;28;20340;-76
2022/05/11 15:37:58;;;;;;;3.08;1.55;;;23.50;99.90;;;;;;4964453;28;20194;-75